Time;durP1;ratioP1;P1;durP2;ratioP2;P2;SDS_P1;SDS_P2;PMS_P1;PMS_P2;Temp;Humidity;BMP_temperature;BMP_pressure;BME280_temperature;BME280_humidity;BME280_pressure;Samples;Min_cycle;Max_cycle;Signal;HPM_P1;HPM_P2
2024/01/21 00:00:09;;;;;;;28.85;5.05;;;;;;;;;;6243932;23;20023;-77
2024/01/21 00:02:38;;;;;;;27.40;4.05;;;;;;;;;;6244968;22;20020;-76
2024/01/21 00:05:05;;;;;;;23.02;4.10;;;;;;;;;;6244842;22;20012;-76
2024/01/21 00:07:32;;;;;;;29.67;4.07;;;;;;;;;;6245305;22;20449;-75
2024/01/21 00:09:59;;;;;;;22.83;5.15;;;;;;;;;;6244653;22;20023;-76
2024/01/21 00:12:25;;;;;;;19.02;3.63;;;;;;;;;;6244623;22;20020;-77
2024/01/21 00:14:52;;;;;;;19.95;4.32;;;;;;;;;;6243597;22;20040;-77
2024/01/21 00:17:19;;;;;;;23.45;4.68;;;;;;;;;;6242016;22;20016;-77
2024/01/21 00:19:46;;;;;;;23.45;4.32;;;;;;;;;;6242894;22;20016;-76
2024/01/21 00:22:13;;;;;;;20.33;3.90;;;;;;;;;;6242171;22;20082;-77
2024/01/21 00:24:39;;;;;;;17.67;3.45;;;;;;;;;;6242905;22;20467;-77
2024/01/21 00:27:06;;;;;;;17.27;3.72;;;;;;;;;;6242145;22;20380;-77
2024/01/21 00:29:33;;;;;;;16.52;3.50;;;;;;;;;;6243800;22;20027;-76
2024/01/21 00:32:00;;;;;;;15.40;3.75;;;;;;;;;;6245038;22;20020;-78
2024/01/21 00:34:26;;;;;;;19.50;3.70;;;;;;;;;;6243093;22;20035;-76
2024/01/21 00:36:55;;;;;;;18.75;4.03;;;;;;;;;;6245108;22;20087;-78
2024/01/21 00:39:22;;;;;;;20.13;4.35;;;;;;;;;;6244588;22;20015;-76
2024/01/21 00:41:48;;;;;;;13.75;3.22;;;;;;;;;;6245174;22;20456;-77
2024/01/21 00:44:30;;;;;;;16.77;4.00;;;;;;;;;;6244470;22;20337;-78
2024/01/21 00:46:57;;;;;;;18.55;3.75;;;;;;;;;;6245236;22;20023;-76
2024/01/21 00:49:23;;;;;;;13.30;3.40;;;;;;;;;;6244763;22;20028;-76
2024/01/21 00:51:50;;;;;;;18.73;3.38;;;;;;;;;;6245362;22;20016;-77
2024/01/21 00:54:17;;;;;;;21.00;4.10;;;;;;;;;;6246627;22;20086;-77
2024/01/21 00:56:44;;;;;;;22.85;2.97;;;;;;;;;;6246977;22;20098;-78
2024/01/21 00:59:11;;;;;;;19.50;3.65;;;;;;;;;;6246301;22;20016;-77
2024/01/21 01:01:38;;;;;;;23.27;2.95;;;;;;;;;;6246961;22;20020;-77
2024/01/21 01:04:05;;;;;;;24.70;3.47;;;;;;;;;;6246465;22;20079;-77
2024/01/21 01:06:34;;;;;;;9.90;1.90;;;;;;;;;;6246896;22;20036;-76
2024/01/21 01:09:01;;;;;;;22.25;3.08;;;;;;;;;;6246808;22;20020;-77
2024/01/21 01:11:28;;;;;;;18.52;2.30;;;;;;;;;;6246195;22;20314;-77
2024/01/21 01:13:55;;;;;;;14.23;2.38;;;;;;;;;;6246745;22;20030;-76
2024/01/21 01:16:22;;;;;;;9.75;2.00;;;;;;;;;;6246193;22;20008;-77
2024/01/21 01:18:49;;;;;;;16.90;2.08;;;;;;;;;;6246729;22;20456;-76
2024/01/21 01:21:16;;;;;;;14.63;2.33;;;;;;;;;;6246054;22;20020;-76
2024/01/21 01:23:43;;;;;;;16.45;2.30;;;;;;;;;;6246650;22;20099;-77
2024/01/21 01:26:10;;;;;;;9.60;2.20;;;;;;;;;;6246128;22;20016;-76
2024/01/21 01:28:36;;;;;;;12.95;1.88;;;;;;;;;;6246690;22;20016;-77
2024/01/21 01:31:06;;;;;;;12.55;2.28;;;;;;;;;;6245938;22;20091;-77
2024/01/21 01:33:33;;;;;;;16.52;1.92;;;;;;;;;;6246766;22;20070;-76
2024/01/21 01:36:00;;;;;;;16.30;2.38;;;;;;;;;;6246610;22;20095;-78
2024/01/21 01:38:27;;;;;;;22.30;2.70;;;;;;;;;;6245649;22;20012;-76
2024/01/21 01:40:54;;;;;;;19.27;2.70;;;;;;;;;;6246812;22;20074;-77
2024/01/21 01:43:21;;;;;;;17.77;2.30;;;;;;;;;;6244458;22;20016;-77
2024/01/21 01:45:48;;;;;;;18.65;2.13;;;;;;;;;;6246635;22;20247;-77
2024/01/21 01:48:15;;;;;;;22.23;2.97;;;;;;;;;;6245970;22;20039;-77
2024/01/21 01:50:42;;;;;;;15.60;2.58;;;;;;;;;;6246437;22;20016;-77
2024/01/21 01:53:09;;;;;;;18.70;2.63;;;;;;;;;;6245896;22;20090;-77
2024/01/21 01:55:36;;;;;;;26.13;2.95;;;;;;;;;;6246381;22;20023;-77
2024/01/21 01:58:03;;;;;;;33.22;3.92;;;;;;;;;;6246432;22;20421;-76
2024/01/21 02:00:30;;;;;;;43.15;4.35;;;;;;;;;;6245961;22;20099;-76
2024/01/21 02:02:58;;;;;;;31.42;4.85;;;;;;;;;;6246188;22;20016;-77
2024/01/21 02:05:25;;;;;;;43.70;5.30;;;;;;;;;;6245844;22;20067;-77
2024/01/21 02:07:52;;;;;;;47.92;6.75;;;;;;;;;;6246286;22;20023;-75
2024/01/21 02:10:19;;;;;;;53.78;5.78;;;;;;;;;;6245600;22;20016;-77
2024/01/21 02:12:45;;;;;;;41.33;5.10;;;;;;;;;;6246343;22;20020;-77
2024/01/21 02:15:12;;;;;;;63.35;6.20;;;;;;;;;;6245650;22;20023;-77
2024/01/21 02:17:40;;;;;;;56.70;5.70;;;;;;;;;;6246292;22;20302;-77
2024/01/21 02:20:07;;;;;;;58.13;6.07;;;;;;;;;;6245675;22;20102;-77
2024/01/21 02:22:38;;;;;;;38.47;6.30;;;;;;;;;;6269509;22;20449;-76
2024/01/21 02:25:06;;;;;;;51.65;5.90;;;;;;;;;;6245392;22;20337;-76
2024/01/21 02:27:34;;;;;;;47.45;5.45;;;;;;;;;;6246221;22;20020;-78
2024/01/21 02:30:01;;;;;;;51.92;5.63;;;;;;;;;;6246023;22;20027;-77
2024/01/21 02:32:28;;;;;;;54.35;6.50;;;;;;;;;;6245597;22;20016;-78
2024/01/21 02:34:55;;;;;;;53.88;5.70;;;;;;;;;;6244553;23;20017;-78
2024/01/21 02:37:22;;;;;;;59.60;7.47;;;;;;;;;;6269089;22;20012;-76
2024/01/21 02:39:48;;;;;;;55.25;6.18;;;;;;;;;;6245816;22;20074;-77
2024/01/21 02:42:15;;;;;;;63.50;7.10;;;;;;;;;;6245281;22;20091;-77
2024/01/21 02:44:42;;;;;;;60.38;8.13;;;;;;;;;;6245825;22;20115;-79
2024/01/21 02:47:09;;;;;;;63.10;7.00;;;;;;;;;;6245363;22;20113;-76
2024/01/21 02:49:36;;;;;;;60.35;6.45;;;;;;;;;;6245768;22;20323;-76
2024/01/21 02:52:03;;;;;;;61.45;7.20;;;;;;;;;;6245794;22;20042;-78
2024/01/21 02:54:29;;;;;;;73.65;7.85;;;;;;;;;;6245318;22;20330;-76
2024/01/21 02:56:56;;;;;;;77.35;7.78;;;;;;;;;;6245806;22;20023;-77
2024/01/21 02:59:23;;;;;;;73.07;8.93;;;;;;;;;;6245232;22;20016;-78
2024/01/21 03:01:50;;;;;;;65.47;8.77;;;;;;;;;;6245644;22;20024;-78
2024/01/21 03:04:16;;;;;;;70.10;7.03;;;;;;;;;;6245083;22;20014;-78
2024/01/21 03:06:43;;;;;;;71.35;7.95;;;;;;;;;;6245939;22;20086;-78
2024/01/21 03:09:10;;;;;;;67.85;7.35;;;;;;;;;;6245179;22;20043;-78
2024/01/21 03:11:40;;;;;;;67.38;8.10;;;;;;;;;;6245571;22;20441;-77
2024/01/21 03:14:07;;;;;;;80.45;8.48;;;;;;;;;;6244954;22;20023;-77
2024/01/21 03:16:34;;;;;;;81.70;9.43;;;;;;;;;;6245634;22;20040;-77
2024/01/21 03:19:01;;;;;;;69.55;9.93;;;;;;;;;;6245392;22;20016;-78
2024/01/21 03:21:27;;;;;;;83.82;8.38;;;;;;;;;;6245109;22;21054;-77
2024/01/21 03:23:54;;;;;;;76.20;9.43;;;;;;;;;;6245594;22;20087;-77
2024/01/21 03:26:21;;;;;;;68.90;7.88;;;;;;;;;;6245082;22;20066;-77
2024/01/21 03:28:47;;;;;;;78.40;7.63;;;;;;;;;;6245709;22;20012;-77
2024/01/21 03:31:17;;;;;;;81.40;8.77;;;;;;;;;;6244922;22;20027;-76
2024/01/21 03:33:44;;;;;;;80.03;8.73;;;;;;;;;;6245504;22;20023;-77
2024/01/21 03:36:11;;;;;;;80.78;8.32;;;;;;;;;;6244973;22;20012;-77
2024/01/21 03:38:39;;;;;;;89.65;8.15;;;;;;;;;;6245407;22;20016;-76
2024/01/21 03:41:06;;;;;;;81.38;8.63;;;;;;;;;;6245093;22;20017;-77
2024/01/21 03:43:32;;;;;;;73.93;8.38;;;;;;;;;;6245640;22;20019;-78
2024/01/21 03:46:01;;;;;;;66.18;8.15;;;;;;;;;;6245279;22;20047;-77
2024/01/21 03:48:27;;;;;;;71.90;8.18;;;;;;;;;;6244864;22;20023;-76
2024/01/21 03:50:54;;;;;;;88.22;9.57;;;;;;;;;;6245495;22;20019;-77
2024/01/21 03:53:21;;;;;;;78.90;8.40;;;;;;;;;;6245052;22;20020;-77
2024/01/21 03:55:48;;;;;;;83.20;10.13;;;;;;;;;;6245647;22;20034;-76
2024/01/21 03:58:15;;;;;;;86.63;8.93;;;;;;;;;;6244627;22;20311;-77
2024/01/21 04:00:42;;;;;;;67.25;8.02;;;;;;;;;;6244028;23;20676;-77
2024/01/21 04:03:09;;;;;;;68.63;7.93;;;;;;;;;;6244947;22;20016;-78
2024/01/21 04:05:36;;;;;;;70.28;8.48;;;;;;;;;;6245430;22;20381;-77
2024/01/21 04:08:05;;;;;;;67.30;8.27;;;;;;;;;;6245528;22;20027;-78
2024/01/21 04:10:32;;;;;;;76.68;8.70;;;;;;;;;;6245046;22;20013;-77
2024/01/21 04:12:58;;;;;;;70.30;8.30;;;;;;;;;;6243944;23;20012;-77
2024/01/21 04:15:25;;;;;;;70.65;8.65;;;;;;;;;;6244821;22;20016;-78
2024/01/21 04:17:52;;;;;;;65.00;7.30;;;;;;;;;;6245303;22;20070;-76
2024/01/21 04:20:19;;;;;;;70.03;8.32;;;;;;;;;;6244788;22;20512;-77
2024/01/21 04:22:46;;;;;;;75.88;7.72;;;;;;;;;;6245515;22;20024;-77
2024/01/21 04:25:13;;;;;;;67.20;7.72;;;;;;;;;;6244678;22;20020;-77
2024/01/21 04:27:40;;;;;;;80.80;7.40;;;;;;;;;;6247249;22;20042;-77
2024/01/21 04:30:07;;;;;;;78.43;8.02;;;;;;;;;;6246782;22;20091;-77
2024/01/21 04:32:33;;;;;;;89.28;10.20;;;;;;;;;;6247149;22;20009;-77
2024/01/21 04:35:00;;;;;;;77.40;9.07;;;;;;;;;;6247062;22;20038;-77
2024/01/21 04:37:27;;;;;;;66.10;7.78;;;;;;;;;;6246733;22;20042;-77
2024/01/21 04:39:54;;;;;;;90.20;9.35;;;;;;;;;;6247217;22;20020;-78
2024/01/21 04:42:20;;;;;;;100.70;8.27;;;;;;;;;;6246403;22;20012;-77
2024/01/21 04:44:47;;;;;;;80.05;7.93;;;;;;;;;;6247165;22;20024;-77
2024/01/21 04:47:14;;;;;;;83.35;8.98;;;;;;;;;;6246365;22;20298;-76
2024/01/21 04:49:41;;;;;;;80.40;9.00;;;;;;;;;;6247240;22;20024;-77
2024/01/21 04:52:07;;;;;;;70.70;8.35;;;;;;;;;;6246603;22;20449;-77
2024/01/21 04:54:34;;;;;;;80.45;8.35;;;;;;;;;;6246994;22;20043;-76
2024/01/21 04:57:01;;;;;;;100.40;10.43;;;;;;;;;;6246993;22;20366;-78
2024/01/21 04:59:28;;;;;;;81.65;8.93;;;;;;;;;;6246559;22;20027;-77
2024/01/21 05:01:55;;;;;;;83.43;8.93;;;;;;;;;;6246853;22;20012;-78
2024/01/21 05:04:21;;;;;;;88.18;9.20;;;;;;;;;;6246468;22;20016;-78
2024/01/21 05:06:48;;;;;;;82.75;9.23;;;;;;;;;;6246970;22;20441;-77
2024/01/21 05:09:15;;;;;;;85.60;8.90;;;;;;;;;;6244676;22;20070;-78
2024/01/21 05:11:42;;;;;;;91.40;10.25;;;;;;;;;;6247021;22;20023;-77
2024/01/21 05:14:10;;;;;;;92.65;10.85;;;;;;;;;;6246424;22;20385;-77
2024/01/21 05:16:40;;;;;;;101.70;11.80;;;;;;;;;;6246809;22;20020;-76
2024/01/21 05:19:07;;;;;;;80.07;8.07;;;;;;;;;;6246127;22;20046;-78
2024/01/21 05:21:34;;;;;;;98.20;10.57;;;;;;;;;;6245209;23;20023;-79
2024/01/21 05:24:01;;;;;;;81.82;8.55;;;;;;;;;;6245515;22;20074;-76
2024/01/21 05:26:30;;;;;;;82.35;8.88;;;;;;;;;;6246222;22;20082;-77
2024/01/21 05:28:59;;;;;;;68.97;9.02;;;;;;;;;;6246625;22;20054;-76
2024/01/21 05:31:28;;;;;;;97.80;9.13;;;;;;;;;;6245985;22;20115;-76
2024/01/21 05:33:55;;;;;;;95.07;10.65;;;;;;;;;;6246656;22;20462;-77
2024/01/21 05:36:22;;;;;;;97.15;9.85;;;;;;;;;;6245809;22;20020;-78
2024/01/21 05:38:48;;;;;;;77.63;8.60;;;;;;;;;;6246122;22;20012;-78
2024/01/21 05:41:16;;;;;;;91.65;9.20;;;;;;;;;;6245933;22;20017;-78
2024/01/21 05:43:43;;;;;;;99.65;10.32;;;;;;;;;;6246446;22;20016;-77
2024/01/21 05:46:09;;;;;;;94.40;9.60;;;;;;;;;;6246040;22;20020;-78
2024/01/21 05:48:36;;;;;;;107.70;11.30;;;;;;;;;;6246666;22;20012;-78
2024/01/21 05:51:03;;;;;;;100.57;10.48;;;;;;;;;;6246395;22;20424;-77
2024/01/21 05:53:30;;;;;;;95.18;10.70;;;;;;;;;;6244420;23;20716;-77
2024/01/21 05:55:56;;;;;;;105.45;11.13;;;;;;;;;;6246480;22;20035;-77
2024/01/21 05:58:24;;;;;;;100.82;9.85;;;;;;;;;;6245676;22;20018;-77
2024/01/21 06:00:51;;;;;;;97.38;10.88;;;;;;;;;;6246537;22;20019;-77
2024/01/21 06:03:17;;;;;;;91.60;9.68;;;;;;;;;;6245857;22;20019;-77
2024/01/21 06:05:44;;;;;;;77.63;10.27;;;;;;;;;;6246342;22;20043;-77
2024/01/21 06:08:11;;;;;;;100.22;10.48;;;;;;;;;;6245733;22;20023;-78
2024/01/21 06:10:38;;;;;;;90.03;8.73;;;;;;;;;;6246020;22;20437;-76
2024/01/21 06:13:05;;;;;;;89.65;9.68;;;;;;;;;;6245654;22;20023;-78
2024/01/21 06:15:32;;;;;;;87.28;9.57;;;;;;;;;;6246437;22;20091;-77
2024/01/21 06:17:59;;;;;;;91.78;10.38;;;;;;;;;;6246181;22;20364;-76
2024/01/21 06:20:26;;;;;;;96.43;11.95;;;;;;;;;;6245404;22;20310;-77
2024/01/21 06:22:53;;;;;;;80.10;9.38;;;;;;;;;;6246285;22;20020;-78
2024/01/21 06:25:21;;;;;;;94.57;10.65;;;;;;;;;;6245543;22;20026;-77
2024/01/21 06:27:49;;;;;;;85.75;11.55;;;;;;;;;;6246048;22;20023;-78
2024/01/21 06:30:21;;;;;;;88.43;10.15;;;;;;;;;;6245441;22;20016;-78
2024/01/21 06:32:48;;;;;;;98.07;9.85;;;;;;;;;;6246063;22;20453;-78
2024/01/21 06:35:28;;;;;;;95.75;10.18;;;;;;;;;;6245364;22;20061;-78
2024/01/21 06:37:55;;;;;;;78.82;11.45;;;;;;;;;;6246083;22;20083;-78
2024/01/21 06:40:22;;;;;;;99.55;14.85;;;;;;;;;;6245093;22;20012;-78
2024/01/21 06:42:48;;;;;;;87.80;13.35;;;;;;;;;;6246088;22;20022;-76
2024/01/21 06:45:16;;;;;;;93.97;9.70;;;;;;;;;;6245097;22;20024;-77
2024/01/21 06:47:42;;;;;;;95.50;10.50;;;;;;;;;;6245902;22;20012;-76
2024/01/21 06:50:12;;;;;;;103.32;10.50;;;;;;;;;;6245098;22;20539;-77
2024/01/21 06:52:39;;;;;;;103.50;13.48;;;;;;;;;;6246022;22;20087;-78
2024/01/21 06:55:06;;;;;;;91.10;12.27;;;;;;;;;;6245366;22;20066;-78
2024/01/21 06:57:33;;;;;;;91.03;10.73;;;;;;;;;;6245739;22;20016;-78
2024/01/21 07:00:05;;;;;;;89.32;10.50;;;;;;;;;;6245930;22;20045;-79
2024/01/21 07:02:32;;;;;;;97.13;10.82;;;;;;;;;;6245405;22;20020;-77
2024/01/21 07:04:59;;;;;;;92.85;10.95;;;;;;;;;;6245869;22;20012;-78
2024/01/21 07:07:26;;;;;;;96.60;12.68;;;;;;;;;;6245223;22;20091;-78
2024/01/21 07:09:52;;;;;;;89.00;11.45;;;;;;;;;;6245688;22;20020;-78
2024/01/21 07:12:19;;;;;;;85.72;11.25;;;;;;;;;;6244995;22;20016;-77
2024/01/21 07:14:46;;;;;;;94.50;10.55;;;;;;;;;;6245905;22;20016;-78
2024/01/21 07:17:13;;;;;;;113.32;12.00;;;;;;;;;;6244951;22;20012;-76
2024/01/21 07:19:39;;;;;;;105.50;11.18;;;;;;;;;;6245635;22;20016;-77
2024/01/21 07:22:06;;;;;;;98.07;10.68;;;;;;;;;;6244984;22;20043;-78
2024/01/21 07:24:33;;;;;;;95.20;11.00;;;;;;;;;;6245542;22;20016;-78
2024/01/21 07:27:00;;;;;;;96.07;12.43;;;;;;;;;;6245321;22;20012;-77
2024/01/21 07:29:26;;;;;;;114.28;11.85;;;;;;;;;;6245262;22;20016;-78
2024/01/21 07:31:53;;;;;;;91.30;10.85;;;;;;;;;;6245313;22;20457;-79
2024/01/21 07:34:20;;;;;;;121.70;14.05;;;;;;;;;;6243277;22;20020;-78
2024/01/21 07:36:47;;;;;;;115.10;19.23;;;;;;;;;;6244405;22;20437;-78
2024/01/21 07:39:14;;;;;;;132.20;24.17;;;;;;;;;;6243246;22;20069;-78
2024/01/21 07:41:41;;;;;;;115.05;17.83;;;;;;;;;;6244151;22;20042;-77
2024/01/21 07:44:07;;;;;;;89.85;12.02;;;;;;;;;;6242273;22;20035;-78
2024/01/21 07:46:34;;;;;;;94.43;14.80;;;;;;;;;;6243980;22;20021;-78
2024/01/21 07:49:01;;;;;;;104.57;16.85;;;;;;;;;;6244073;22;20023;-78
2024/01/21 07:51:28;;;;;;;92.68;11.40;;;;;;;;;;6243729;22;20465;-78
2024/01/21 07:53:54;;;;;;;105.53;15.88;;;;;;;;;;6244592;22;20016;-80
2024/01/21 07:56:22;;;;;;;128.68;16.98;;;;;;;;;;6243665;22;20016;-78
2024/01/21 07:58:48;;;;;;;107.45;23.58;;;;;;;;;;6248578;22;20020;-78
2024/01/21 08:01:20;;;;;;;117.18;24.52;;;;;;;;;;6244217;22;20028;-78
2024/01/21 08:03:47;;;;;;;111.65;13.32;;;;;;;;;;6245933;22;20078;-78
2024/01/21 08:06:14;;;;;;;114.55;13.18;;;;;;;;;;6245475;22;20020;-79
2024/01/21 08:08:41;;;;;;;111.05;15.85;;;;;;;;;;6244151;23;20020;-78
2024/01/21 08:11:08;;;;;;;113.65;13.13;;;;;;;;;;6245438;22;20020;-78
2024/01/21 08:13:35;;;;;;;108.95;13.02;;;;;;;;;;6246107;22;20098;-79
2024/01/21 08:16:02;;;;;;;124.80;13.18;;;;;;;;;;6245499;22;20020;-79
2024/01/21 08:18:29;;;;;;;119.50;14.32;;;;;;;;;;6245594;22;20024;-78
2024/01/21 08:20:58;;;;;;;134.82;17.52;;;;;;;;;;6245395;22;20430;-78
2024/01/21 08:23:25;;;;;;;104.00;13.27;;;;;;;;;;6244926;22;20646;-78
2024/01/21 08:25:51;;;;;;;129.70;16.52;;;;;;;;;;6245636;22;20036;-78
2024/01/21 08:28:18;;;;;;;108.78;15.88;;;;;;;;;;6245008;22;20661;-78
2024/01/21 08:30:45;;;;;;;104.32;13.95;;;;;;;;;;6245468;22;20087;-79
2024/01/21 08:33:12;;;;;;;109.57;12.43;;;;;;;;;;6245018;22;20026;-78
2024/01/21 08:35:39;;;;;;;112.38;12.95;;;;;;;;;;6245502;22;20020;-78
2024/01/21 08:38:06;;;;;;;113.57;13.18;;;;;;;;;;6245258;22;20016;-77
2024/01/21 08:40:33;;;;;;;100.95;13.77;;;;;;;;;;6245430;22;20162;-78
2024/01/21 08:43:00;;;;;;;95.88;11.60;;;;;;;;;;6245647;22;20020;-78
2024/01/21 08:45:27;;;;;;;105.97;12.18;;;;;;;;;;6244630;22;20449;-77
2024/01/21 08:47:54;;;;;;;95.15;12.25;;;;;;;;;;6245354;22;20087;-78
2024/01/21 08:50:21;;;;;;;92.03;11.18;;;;;;;;;;6244696;22;20024;-78
2024/01/21 08:52:47;;;;;;;97.10;12.90;;;;;;;;;;6245552;22;20016;-76
2024/01/21 08:55:14;;;;;;;104.10;13.68;;;;;;;;;;6244347;22;20027;-81
2024/01/21 08:57:41;;;;;;;86.97;11.30;;;;;;;;;;6243678;23;20028;-77
2024/01/21 09:00:10;;;;;;;92.57;11.63;;;;;;;;;;6244679;22;20024;-77
2024/01/21 09:02:40;;;;;;;106.45;10.90;;;;;;;;;;6244981;22;20047;-83
2024/01/21 09:05:07;;;;;;;99.95;12.50;;;;;;;;;;6268442;22;20032;-80
2024/01/21 09:07:34;;;;;;;108.25;12.02;;;;;;;;;;6218579;23;20020;-81
2024/01/21 09:10:04;;;;;;;97.20;12.35;;;;;;;;;;6243431;23;20022;-81
2024/01/21 09:12:31;;;;;;;109.18;16.83;;;;;;;;;;6267402;22;20103;-81
2024/01/21 09:14:58;;;;;;;102.57;13.23;;;;;;;;;;6244653;22;20023;-80
2024/01/21 09:17:25;;;;;;;104.72;10.38;;;;;;;;;;6242673;22;20104;-80
2024/01/21 09:19:52;;;;;;;88.10;11.80;;;;;;;;;;6268837;22;20016;-80
2024/01/21 09:22:18;;;;;;;99.88;12.27;;;;;;;;;;6217511;22;20020;-80
2024/01/21 09:24:47;;;;;;;95.03;11.70;;;;;;;;;;6244921;22;20020;-81
2024/01/21 09:27:15;;;;;;;120.93;17.20;;;;;;;;;;6240414;22;20337;-81
2024/01/21 09:29:43;;;;;;;121.43;15.13;;;;;;;;;;6243144;23;20020;-82
2024/01/21 09:32:13;;;;;;;100.47;12.73;;;;;;;;;;6240622;22;20305;-80
2024/01/21 09:34:40;;;;;;;103.57;12.85;;;;;;;;;;6245790;22;20035;-82
2024/01/21 09:37:07;;;;;;;98.05;11.90;;;;;;;;;;6243685;22;20020;-80
2024/01/21 09:39:34;;;;;;;96.60;11.63;;;;;;;;;;6244328;23;20409;-81
2024/01/21 09:42:05;;;;;;;89.00;11.15;;;;;;;;;;6243626;23;20352;-81
2024/01/21 09:44:32;;;;;;;93.28;11.02;;;;;;;;;;6244659;22;20051;-81
2024/01/21 09:47:01;;;;;;;86.00;10.50;;;;;;;;;;6244427;23;20020;-81
2024/01/21 09:49:31;;;;;;;100.63;11.10;;;;;;;;;;6268682;22;20473;-81
2024/01/21 09:51:59;;;;;;;106.40;11.88;;;;;;;;;;6244868;22;20099;-80
2024/01/21 09:54:25;;;;;;;110.10;11.57;;;;;;;;;;6243039;22;20421;-80
2024/01/21 09:56:52;;;;;;;94.97;11.60;;;;;;;;;;6244261;23;20087;-82
2024/01/21 09:59:19;;;;;;;102.70;12.05;;;;;;;;;;6218357;22;20329;-82
2024/01/21 10:01:47;;;;;;;107.35;11.85;;;;;;;;;;6245161;22;20050;-83
2024/01/21 10:04:14;;;;;;;110.85;13.10;;;;;;;;;;6218147;22;20023;-81
2024/01/21 10:06:42;;;;;;;100.25;12.73;;;;;;;;;;6244075;23;20094;-80
2024/01/21 10:09:20;;;;;;;97.68;11.07;;;;;;;;;;6242693;22;20024;-80
2024/01/21 10:11:50;;;;;;;95.15;11.75;;;;;;;;;;6245474;22;20104;-82
2024/01/21 10:14:16;;;;;;;98.53;11.05;;;;;;;;;;6243411;22;20019;-81
2024/01/21 10:16:43;;;;;;;93.57;12.82;;;;;;;;;;6269179;22;20026;-80
2024/01/21 10:19:14;;;;;;;101.30;12.15;;;;;;;;;;6243040;22;20016;-80
2024/01/21 10:21:42;;;;;;;94.97;11.32;;;;;;;;;;6268537;22;20086;-81
2024/01/21 10:24:10;;;;;;;94.25;11.38;;;;;;;;;;6267897;22;20499;-82
2024/01/21 10:26:41;;;;;;;114.28;13.13;;;;;;;;;;6243199;23;20043;-81
2024/01/21 10:29:08;;;;;;;98.80;11.90;;;;;;;;;;6242302;22;20095;-80
2024/01/21 10:31:35;;;;;;;91.63;10.50;;;;;;;;;;6244791;22;20378;-81
2024/01/21 10:34:02;;;;;;;78.90;9.88;;;;;;;;;;6268967;22;20130;-80
2024/01/21 10:36:35;;;;;;;83.07;10.80;;;;;;;;;;6242375;23;20024;-82
2024/01/21 10:39:06;;;;;;;73.75;9.82;;;;;;;;;;6218310;23;20099;-81
2024/01/21 10:41:34;;;;;;;92.97;11.15;;;;;;;;;;6267551;22;20047;-81
2024/01/21 10:44:02;;;;;;;84.00;11.73;;;;;;;;;;6243366;23;20459;-81
2024/01/21 10:46:33;;;;;;;95.47;12.02;;;;;;;;;;6242593;23;20024;-82
2024/01/21 10:49:00;;;;;;;89.07;10.02;;;;;;;;;;6243343;23;20392;-81
2024/01/21 10:51:29;;;;;;;90.93;9.65;;;;;;;;;;6242451;22;20346;-81
2024/01/21 10:53:57;;;;;;;96.55;10.95;;;;;;;;;;6242873;23;20091;-81
2024/01/21 10:56:25;;;;;;;75.13;10.57;;;;;;;;;;6242392;22;20441;-81
2024/01/21 10:58:53;;;;;;;78.05;9.25;;;;;;;;;;6268362;22;20043;-81
2024/01/21 11:01:23;;;;;;;69.10;9.00;;;;;;;;;;6244402;22;20351;-82
2024/01/21 11:04:03;;;;;;;86.00;10.40;;;;;;;;;;6243183;23;20016;-80
2024/01/21 11:06:31;;;;;;;81.45;9.80;;;;;;;;;;6268234;22;20078;-81
2024/01/21 11:09:00;;;;;;;81.75;10.50;;;;;;;;;;6242996;23;20020;-80
2024/01/21 11:11:27;;;;;;;63.30;7.82;;;;;;;;;;6241811;22;20032;-80
2024/01/21 11:13:55;;;;;;;74.53;9.90;;;;;;;;;;6268572;22;20024;-80
2024/01/21 11:16:30;;;;;;;69.85;10.80;;;;;;;;;;6242783;22;20023;-81
2024/01/21 11:18:58;;;;;;;75.32;10.77;;;;;;;;;;6244643;22;20022;-81
2024/01/21 11:21:27;;;;;;;77.32;11.23;;;;;;;;;;6244007;22;20027;-82
2024/01/21 11:24:03;;;;;;;;;;;;;;;;;;6243610;23;20031;-81
2024/01/21 11:26:40;;;;;;;76.53;10.48;;;;;;;;;;6217712;23;19930;-81
2024/01/21 11:29:22;;;;;;;72.15;10.20;;;;;;;;;;6243834;22;20055;-81
2024/01/21 11:31:55;;;;;;;68.22;9.52;;;;;;;;;;6246676;23;20020;-83
2024/01/21 11:34:22;;;;;;;65.93;10.75;;;;;;;;;;6245281;22;20023;-81
2024/01/21 11:36:50;;;;;;;69.95;9.00;;;;;;;;;;6248407;22;20413;-81
2024/01/21 11:39:24;;;;;;;70.17;9.00;;;;;;;;;;6243622;22;20020;-81
2024/01/21 11:41:51;;;;;;;58.05;9.15;;;;;;;;;;6201109;23;20284;-81
2024/01/21 11:44:23;;;;;;;77.55;9.85;;;;;;;;;;6254815;22;20016;-80
2024/01/21 11:47:01;;;;;;;70.90;8.25;;;;;;;;;;6254761;23;20429;-81
2024/01/21 11:49:30;;;;;;;67.72;9.52;;;;;;;;;;6244332;22;20062;-81
2024/01/21 11:51:59;;;;;;;60.63;7.82;;;;;;;;;;6244814;22;20016;-81
2024/01/21 11:54:28;;;;;;;61.25;8.43;;;;;;;;;;6216678;22;20040;-81
2024/01/21 11:56:55;;;;;;;62.13;7.68;;;;;;;;;;6268278;22;20016;-81
2024/01/21 11:59:23;;;;;;;58.47;6.03;;;;;;;;;;6267496;22;20016;-80
2024/01/21 12:01:50;;;;;;;56.63;7.50;;;;;;;;;;6242768;23;20099;-81
2024/01/21 12:04:17;;;;;;;49.03;6.82;;;;;;;;;;6243846;22;20437;-81
2024/01/21 12:06:46;;;;;;;60.30;8.23;;;;;;;;;;6244374;22;20020;-81
2024/01/21 12:09:14;;;;;;;67.28;8.60;;;;;;;;;;6243588;22;20050;-81
2024/01/21 12:11:41;;;;;;;54.35;7.45;;;;;;;;;;6244549;22;20016;-80
2024/01/21 12:14:11;;;;;;;54.60;6.95;;;;;;;;;;6241644;22;20012;-81
2024/01/21 12:16:39;;;;;;;55.33;6.95;;;;;;;;;;6244457;22;20016;-82
2024/01/21 12:19:10;;;;;;;55.75;6.82;;;;;;;;;;6242105;22;20066;-81
2024/01/21 12:21:37;;;;;;;58.28;7.28;;;;;;;;;;6244243;22;20020;-80
2024/01/21 12:24:04;;;;;;;50.58;6.50;;;;;;;;;;6242844;22;20024;-81
2024/01/21 12:26:31;;;;;;;56.90;6.50;;;;;;;;;;6241705;22;20024;-80
2024/01/21 12:29:00;;;;;;;63.35;7.20;;;;;;;;;;6243264;22;20028;-80
2024/01/21 12:31:30;;;;;;;33.33;5.53;;;;;;;;;;6242324;22;20090;-80
2024/01/21 12:33:58;;;;;;;54.50;6.50;;;;;;;;;;6266312;22;20027;-79
2024/01/21 12:36:25;;;;;;;50.75;6.22;;;;;;;;;;6239367;22;20323;-80
2024/01/21 12:38:56;;;;;;;49.70;6.65;;;;;;;;;;6239113;23;20016;-79
2024/01/21 12:41:23;;;;;;;51.63;6.28;;;;;;;;;;6240162;22;20686;-81
2024/01/21 12:43:50;;;;;;;47.70;6.28;;;;;;;;;;6239275;23;20020;-80
2024/01/21 12:46:19;;;;;;;43.08;5.07;;;;;;;;;;6241984;22;20022;-80
2024/01/21 12:48:46;;;;;;;;;;;;;;;;;;6244885;22;20017;-79
2024/01/21 12:51:16;;;;;;;47.28;5.97;;;;;;;;;;6244105;22;19986;-78
2024/01/21 12:53:49;;;;;;;46.00;5.32;;;;;;;;;;6243078;22;20016;-78
2024/01/21 12:56:17;;;;;;;49.97;6.15;;;;;;;;;;6242382;22;20016;-80
2024/01/21 12:58:44;;;;;;;59.05;7.90;;;;;;;;;;6243349;22;20016;-80
2024/01/21 13:01:11;;;;;;;38.75;5.97;;;;;;;;;;6243182;22;20039;-80
2024/01/21 13:03:38;;;;;;;52.92;7.00;;;;;;;;;;6243493;22;20020;-80
2024/01/21 13:06:06;;;;;;;46.75;6.75;;;;;;;;;;6242419;22;20039;-82
2024/01/21 13:08:36;;;;;;;48.15;7.07;;;;;;;;;;6268606;22;20043;-83
2024/01/21 13:11:03;;;;;;;38.85;5.50;;;;;;;;;;6218536;23;20020;-79
2024/01/21 13:13:30;;;;;;;50.00;6.72;;;;;;;;;;6245000;22;20024;-79
2024/01/21 13:15:58;;;;;;;46.08;6.03;;;;;;;;;;6245254;22;20321;-78
2024/01/21 13:18:27;;;;;;;41.95;6.15;;;;;;;;;;6244345;22;20020;-79
2024/01/21 13:20:53;;;;;;;42.90;5.57;;;;;;;;;;6268651;22;20024;-79
2024/01/21 13:23:20;;;;;;;55.70;6.15;;;;;;;;;;6243011;22;20382;-79
2024/01/21 13:25:47;;;;;;;42.00;6.88;;;;;;;;;;6244995;22;20471;-79
2024/01/21 13:28:14;;;;;;;45.55;6.40;;;;;;;;;;6244630;22;20082;-78
2024/01/21 13:30:45;;;;;;;44.97;7.28;;;;;;;;;;6245261;22;20016;-78
2024/01/21 13:33:13;;;;;;;56.45;6.88;;;;;;;;;;6244586;22;20020;-80
2024/01/21 13:35:42;;;;;;;41.60;6.63;;;;;;;;;;6244929;22;20459;-80
2024/01/21 13:38:10;;;;;;;;;;;;;;;;;;6245155;22;20325;-79
2024/01/21 13:40:37;;;;;;;54.40;7.00;;;;;;;;;;6245065;22;19926;-79
2024/01/21 13:43:04;;;;;;;51.63;7.20;;;;;;;;;;6243999;22;20448;-78
2024/01/21 13:45:32;;;;;;;47.50;6.03;;;;;;;;;;6243684;22;20329;-79
2024/01/21 13:48:00;;;;;;;44.55;7.18;;;;;;;;;;6245172;22;20016;-79
2024/01/21 13:50:28;;;;;;;51.17;5.95;;;;;;;;;;6241576;22;20020;-80
2024/01/21 13:52:58;;;;;;;44.75;6.45;;;;;;;;;;6241985;22;20032;-79
2024/01/21 13:55:25;;;;;;;48.78;6.93;;;;;;;;;;6240335;22;20028;-78
2024/01/21 13:57:52;;;;;;;54.03;6.50;;;;;;;;;;6240582;22;20027;-80
2024/01/21 14:00:22;;;;;;;52.92;7.68;;;;;;;;;;6244026;22;20020;-79
2024/01/21 14:02:50;;;;;;;58.25;7.90;;;;;;;;;;6243311;22;20522;-78
2024/01/21 14:05:17;;;;;;;51.22;6.85;;;;;;;;;;6244215;22;20024;-79
2024/01/21 14:07:43;;;;;;;46.78;6.90;;;;;;;;;;6244541;22;20023;-80
2024/01/21 14:10:10;;;;;;;51.90;7.22;;;;;;;;;;6244253;22;20016;-80
2024/01/21 14:12:38;;;;;;;47.40;6.10;;;;;;;;;;6244664;22;20020;-80
2024/01/21 14:15:05;;;;;;;50.70;6.68;;;;;;;;;;6244490;22;20511;-79
2024/01/21 14:17:32;;;;;;;54.65;8.50;;;;;;;;;;6242740;23;20020;-78
2024/01/21 14:19:59;;;;;;;57.17;9.18;;;;;;;;;;6243786;22;20035;-78
2024/01/21 14:22:26;;;;;;;58.83;8.13;;;;;;;;;;6243854;22;20016;-78
2024/01/21 14:24:55;;;;;;;54.13;7.47;;;;;;;;;;6243560;22;20020;-77